Time;durP1;ratioP1;P1;durP2;ratioP2;P2;SDS_P1;SDS_P2;PMS_P1;PMS_P2;Temp;Humidity;BMP_temperature;BMP_pressure;BME280_temperature;BME280_humidity;BME280_pressure;Samples;Min_cycle;Max_cycle;Signal;HPM_P1;HPM_P2
2024/03/22 00:02:23;;;;;;;13.65;4.30;;;10.70;99.90;;;;;;4988759;28;20037;-78
2024/03/22 00:04:48;;;;;;;19.48;4.38;;;10.70;99.90;;;;;;4955600;28;20035;-75
2024/03/22 00:07:14;;;;;;;18.33;4.70;;;10.70;99.90;;;;;;4955562;28;20038;-75
2024/03/22 00:09:39;;;;;;;25.50;6.63;;;10.60;99.90;;;;;;4971479;28;20042;-76
2024/03/22 00:12:06;;;;;;;19.08;4.97;;;10.60;99.90;;;;;;4955487;28;20034;-75
2024/03/22 00:14:31;;;;;;;15.27;4.85;;;10.50;99.90;;;;;;4971477;28;20153;-76
2024/03/22 00:16:57;;;;;;;30.73;8.07;;;10.50;99.90;;;;;;4988505;28;20030;-75
2024/03/22 00:19:22;;;;;;;33.60;9.52;;;10.40;99.90;;;;;;4971357;28;20319;-76
2024/03/22 00:21:48;;;;;;;20.13;6.18;;;10.40;99.90;;;;;;4971255;28;20034;-74
2024/03/22 00:24:14;;;;;;;27.63;8.23;;;10.40;99.90;;;;;;4970201;28;20110;-76
2024/03/22 00:26:39;;;;;;;27.35;9.02;;;10.40;99.90;;;;;;4970993;28;20075;-76
2024/03/22 00:29:05;;;;;;;38.25;11.27;;;10.30;99.90;;;;;;4971060;28;20189;-76
2024/03/22 00:31:31;;;;;;;26.60;7.07;;;10.30;99.90;;;;;;4971201;28;20022;-76
2024/03/22 00:33:56;;;;;;;29.98;7.63;;;10.30;99.90;;;;;;4955102;28;20051;-75
2024/03/22 00:36:22;;;;;;;28.73;8.23;;;10.20;99.90;;;;;;4970982;28;20191;-76
2024/03/22 00:38:47;;;;;;;57.10;15.30;;;10.20;99.90;;;;;;4954835;28;20023;-75
2024/03/22 00:41:13;;;;;;;30.17;10.10;;;10.20;99.90;;;;;;4954657;28;20038;-75
2024/03/22 00:43:39;;;;;;;33.42;8.75;;;10.20;99.90;;;;;;4954882;28;20039;-75
2024/03/22 00:46:04;;;;;;;27.77;6.30;;;10.20;99.90;;;;;;4970856;28;20014;-75
2024/03/22 00:48:30;;;;;;;20.02;6.78;;;10.10;99.90;;;;;;4970869;28;20167;-75
2024/03/22 00:50:56;;;;;;;29.05;8.68;;;10.10;99.90;;;;;;4954804;28;20045;-76
2024/03/22 00:53:21;;;;;;;16.42;4.72;;;10.10;99.90;;;;;;4954741;28;20023;-75
2024/03/22 00:55:50;;;;;;;20.27;5.22;;;10.10;99.90;;;;;;4938690;28;20023;-75
2024/03/22 00:58:20;;;;;;;28.67;8.77;;;10.10;99.90;;;;;;4955681;28;20027;-76
2024/03/22 01:00:46;;;;;;;23.27;6.03;;;10.10;99.90;;;;;;4970981;28;20031;-76
2024/03/22 01:03:12;;;;;;;27.58;7.53;;;10.10;99.90;;;;;;4970437;28;20115;-75
2024/03/22 01:05:38;;;;;;;15.23;3.53;;;10.10;99.90;;;;;;4954547;28;20311;-76
2024/03/22 01:08:04;;;;;;;26.60;6.47;;;10.10;99.90;;;;;;4970455;28;20022;-75
2024/03/22 01:10:30;;;;;;;22.77;4.93;;;10.00;99.90;;;;;;4970433;28;20315;-76
2024/03/22 01:12:56;;;;;;;16.48;3.80;;;10.00;99.90;;;;;;4954306;28;20030;-76
2024/03/22 01:15:22;;;;;;;13.43;3.60;;;10.00;99.90;;;;;;4970328;28;20019;-78
2024/03/22 01:17:47;;;;;;;16.65;4.35;;;10.00;99.90;;;;;;4954367;28;20343;-78
2024/03/22 01:20:13;;;;;;;30.70;9.05;;;10.00;99.90;;;;;;4987266;28;20046;-77
2024/03/22 01:22:40;;;;;;;29.83;6.20;;;10.00;99.90;;;;;;4970349;28;20322;-78
2024/03/22 01:25:06;;;;;;;22.48;5.25;;;9.90;99.90;;;;;;4987304;28;20037;-78
2024/03/22 01:27:31;;;;;;;28.30;4.82;;;9.90;99.90;;;;;;4954064;28;20066;-77
2024/03/22 01:29:57;;;;;;;21.90;3.83;;;9.90;99.90;;;;;;4954172;28;20157;-77
2024/03/22 01:32:23;;;;;;;19.92;5.20;;;9.90;99.90;;;;;;4970224;28;20172;-77
2024/03/22 01:34:48;;;;;;;17.98;4.97;;;9.90;99.90;;;;;;4969952;28;20095;-77
2024/03/22 01:37:14;;;;;;;24.25;5.57;;;9.90;99.90;;;;;;4969986;28;20275;-78
2024/03/22 01:39:39;;;;;;;24.13;4.30;;;9.90;99.90;;;;;;4969854;28;20378;-77
2024/03/22 01:42:05;;;;;;;28.00;7.80;;;9.90;99.90;;;;;;4969723;28;20351;-77
2024/03/22 01:44:34;;;;;;;16.65;4.78;;;9.80;99.90;;;;;;4970292;28;20034;-77
2024/03/22 01:47:00;;;;;;;26.08;4.90;;;9.80;99.90;;;;;;4954017;28;20365;-75
2024/03/22 01:49:25;;;;;;;29.33;4.85;;;9.80;99.90;;;;;;4986736;28;20052;-75
2024/03/22 01:51:52;;;;;;;18.60;5.78;;;9.80;99.90;;;;;;4970035;28;20171;-75
2024/03/22 01:54:17;;;;;;;24.55;4.85;;;9.80;99.90;;;;;;4969512;28;20103;-76
2024/03/22 01:56:43;;;;;;;28.48;5.95;;;9.70;99.90;;;;;;4953560;28;20030;-76
2024/03/22 01:59:09;;;;;;;28.02;5.25;;;9.80;99.90;;;;;;4969719;28;20026;-76
2024/03/22 02:01:35;;;;;;;31.00;4.85;;;9.80;99.90;;;;;;4953775;28;20042;-76
2024/03/22 02:04:00;;;;;;;25.23;5.32;;;9.80;99.90;;;;;;4969773;28;20319;-76
2024/03/22 02:06:26;;;;;;;27.52;4.75;;;9.80;99.90;;;;;;4953707;28;20089;-76
2024/03/22 02:08:52;;;;;;;28.27;4.63;;;9.80;99.90;;;;;;4953581;28;20034;-76
2024/03/22 02:11:18;;;;;;;25.15;4.78;;;9.80;99.90;;;;;;4969587;28;20074;-76
2024/03/22 02:13:44;;;;;;;26.27;4.30;;;9.80;99.90;;;;;;4953771;28;20114;-76
2024/03/22 02:16:10;;;;;;;28.20;5.00;;;9.80;99.90;;;;;;4969508;28;20027;-76
2024/03/22 02:18:35;;;;;;;24.48;4.40;;;9.80;99.90;;;;;;4986768;28;20184;-77
2024/03/22 02:21:01;;;;;;;31.13;5.97;;;9.80;99.90;;;;;;4953402;28;20183;-77
2024/03/22 02:23:36;;;;;;;28.55;5.05;;;9.80;99.90;;;;;;4953687;28;20054;-77
2024/03/22 02:26:02;;;;;;;24.70;4.93;;;9.70;99.90;;;;;;4986571;28;20102;-76
2024/03/22 02:28:28;;;;;;;29.17;5.55;;;9.80;99.90;;;;;;4969259;28;20018;-77
2024/03/22 02:30:54;;;;;;;23.98;5.13;;;9.80;99.90;;;;;;4969386;28;20093;-77
2024/03/22 02:33:19;;;;;;;28.60;4.93;;;9.80;99.90;;;;;;4953525;28;20121;-77
2024/03/22 02:35:48;;;;;;;28.30;5.50;;;9.80;99.90;;;;;;4937549;28;20026;-76
2024/03/22 02:38:14;;;;;;;32.57;5.37;;;9.70;99.90;;;;;;4969331;28;20038;-76
2024/03/22 02:40:40;;;;;;;27.48;5.50;;;9.80;99.90;;;;;;4953282;28;20277;-76
2024/03/22 02:43:06;;;;;;;24.65;4.68;;;9.80;99.90;;;;;;4986311;28;20041;-76
2024/03/22 02:45:32;;;;;;;24.60;4.40;;;9.80;99.90;;;;;;4969109;28;20065;-77
2024/03/22 02:58:54;;;;;;;39.83;6.25;;;9.80;99.90;;;;;;4989545;28;20065;-77
2024/03/22 03:01:19;;;;;;;28.73;5.68;;;9.80;99.90;;;;;;4972552;28;20181;-77
2024/03/22 03:03:45;;;;;;;34.22;6.55;;;9.80;99.90;;;;;;4956709;28;20035;-77
2024/03/22 03:06:13;;;;;;;29.20;5.35;;;9.80;99.90;;;;;;4972777;28;20026;-77
2024/03/22 03:08:39;;;;;;;32.42;6.60;;;9.80;99.90;;;;;;4972875;28;20022;-77
2024/03/22 03:11:04;;;;;;;30.65;5.55;;;9.80;99.90;;;;;;4972389;28;20183;-77
2024/03/22 03:13:30;;;;;;;35.40;5.30;;;9.80;99.90;;;;;;4989688;28;20029;-77
2024/03/22 03:15:57;;;;;;;34.00;6.35;;;9.80;99.90;;;;;;4972492;28;20046;-76
2024/03/22 03:18:22;;;;;;;31.63;6.00;;;9.70;99.90;;;;;;4956335;28;20023;-76
2024/03/22 03:20:48;;;;;;;29.92;4.90;;;9.70;99.90;;;;;;4956333;28;20027;-77
2024/03/22 03:23:14;;;;;;;36.17;5.63;;;9.70;99.90;;;;;;4972435;28;20045;-77
2024/03/22 03:25:39;;;;;;;31.83;4.85;;;9.60;99.90;;;;;;4989457;28;20037;-77
2024/03/22 03:28:07;;;;;;;28.67;5.15;;;9.60;99.90;;;;;;4956284;28;20042;-76
2024/03/22 03:30:33;;;;;;;29.90;5.22;;;9.60;99.90;;;;;;4940628;28;20301;-77
2024/03/22 03:32:59;;;;;;;27.50;4.65;;;9.60;99.90;;;;;;4972175;28;20019;-77
2024/03/22 03:35:25;;;;;;;30.38;5.65;;;9.60;99.90;;;;;;4989306;28;20081;-77
2024/03/22 03:37:51;;;;;;;29.65;5.57;;;9.50;99.90;;;;;;4956111;28;20287;-76
2024/03/22 03:40:17;;;;;;;41.35;6.18;;;9.50;99.90;;;;;;4971951;28;20050;-77
2024/03/22 03:42:42;;;;;;;33.90;4.97;;;9.50;99.90;;;;;;4971961;28;20035;-75
2024/03/22 03:45:08;;;;;;;28.42;4.57;;;9.50;99.90;;;;;;4955858;28;20035;-75
2024/03/22 03:47:34;;;;;;;28.50;5.13;;;9.40;99.90;;;;;;4971931;28;20359;-76
2024/03/22 03:49:59;;;;;;;32.97;6.15;;;9.50;99.90;;;;;;4971914;28;20094;-76
2024/03/22 03:52:25;;;;;;;30.95;4.85;;;9.40;99.90;;;;;;4956210;28;20026;-76
2024/03/22 03:54:51;;;;;;;32.28;6.70;;;9.40;99.90;;;;;;4955883;28;20027;-76
2024/03/22 03:57:16;;;;;;;33.85;5.93;;;9.40;99.90;;;;;;4955347;28;20026;-76
2024/03/22 03:59:42;;;;;;;37.40;5.60;;;9.40;99.90;;;;;;4971058;28;20034;-77
2024/03/22 04:02:08;;;;;;;39.70;6.10;;;9.40;99.90;;;;;;4955915;28;20088;-76
2024/03/22 04:04:33;;;;;;;31.73;5.72;;;9.40;99.90;;;;;;4955425;28;20081;-77
2024/03/22 04:06:59;;;;;;;33.70;6.00;;;9.30;99.90;;;;;;4938004;28;20031;-77
2024/03/22 04:09:24;;;;;;;38.22;5.97;;;9.30;99.90;;;;;;4955385;28;20307;-76
2024/03/22 04:11:50;;;;;;;32.17;5.63;;;9.30;99.90;;;;;;4971498;28;20026;-76
2024/03/22 04:14:16;;;;;;;33.20;5.80;;;9.30;99.90;;;;;;4936169;29;20035;-76
2024/03/22 04:16:41;;;;;;;32.85;5.18;;;9.20;99.90;;;;;;4967417;28;20023;-76
2024/03/22 04:19:07;;;;;;;35.78;6.57;;;9.20;99.90;;;;;;4955422;28;20026;-76
2024/03/22 04:21:33;;;;;;;30.05;5.53;;;9.10;99.90;;;;;;4971206;28;20027;-77
2024/03/22 04:23:59;;;;;;;28.08;4.75;;;9.10;99.90;;;;;;4955386;28;20019;-76
2024/03/22 04:26:24;;;;;;;38.83;6.18;;;9.10;99.90;;;;;;4955203;28;20019;-76
2024/03/22 04:28:50;;;;;;;33.08;5.25;;;9.10;99.90;;;;;;4955325;28;20031;-76
2024/03/22 04:31:15;;;;;;;29.40;4.82;;;9.10;99.90;;;;;;4955080;28;20029;-76
2024/03/22 04:33:41;;;;;;;33.72;6.43;;;9.10;99.90;;;;;;4971398;28;20070;-77
2024/03/22 04:36:09;;;;;;;26.42;5.63;;;9.10;99.90;;;;;;4970977;28;20046;-76
2024/03/22 04:38:35;;;;;;;33.33;5.65;;;9.10;99.90;;;;;;4971647;28;20022;-76
2024/03/22 04:41:01;;;;;;;27.20;4.40;;;9.00;99.90;;;;;;4970813;28;20043;-76
2024/03/22 04:43:27;;;;;;;33.70;4.88;;;9.00;99.90;;;;;;4955172;28;20232;-76
2024/03/22 04:45:53;;;;;;;29.65;5.43;;;9.00;99.90;;;;;;4939089;28;20280;-76
2024/03/22 04:48:20;;;;;;;38.70;5.75;;;9.00;99.90;;;;;;4970988;28;20037;-76
2024/03/22 04:50:47;;;;;;;31.15;5.40;;;8.90;99.90;;;;;;4970688;28;20047;-77
2024/03/22 04:53:13;;;;;;;39.50;5.82;;;8.90;99.90;;;;;;4987798;28;20015;-77
2024/03/22 04:55:38;;;;;;;29.38;5.68;;;8.90;99.90;;;;;;4955001;28;20027;-77
2024/03/22 04:58:04;;;;;;;30.80;4.97;;;8.90;99.90;;;;;;4938838;28;20031;-76
2024/03/22 05:00:30;;;;;;;30.25;5.97;;;8.80;99.90;;;;;;4938648;28;20187;-77
2024/03/22 05:02:55;;;;;;;32.30;4.80;;;8.80;99.90;;;;;;4970563;28;20023;-77
2024/03/22 05:05:21;;;;;;;33.28;5.45;;;8.80;99.90;;;;;;4938652;28;20176;-77
2024/03/22 05:07:47;;;;;;;34.65;5.90;;;8.70;99.90;;;;;;4954390;28;20030;-76
2024/03/22 05:10:13;;;;;;;30.70;5.75;;;8.70;99.90;;;;;;4969976;28;20235;-76
2024/03/22 05:12:39;;;;;;;37.95;5.32;;;8.60;99.90;;;;;;4954355;28;20216;-76
2024/03/22 05:15:06;;;;;;;27.65;4.75;;;8.60;99.90;;;;;;4970502;28;20074;-76
2024/03/22 05:17:32;;;;;;;32.58;5.80;;;8.60;99.90;;;;;;4987351;28;20295;-77
2024/03/22 05:19:58;;;;;;;34.05;5.93;;;8.50;99.90;;;;;;4970375;28;20334;-75
2024/03/22 05:22:24;;;;;;;32.33;6.35;;;8.50;99.90;;;;;;4954451;28;20033;-77
2024/03/22 05:24:49;;;;;;;32.75;4.82;;;8.50;99.90;;;;;;4970170;28;20215;-76
2024/03/22 05:27:15;;;;;;;37.15;6.00;;;8.40;99.90;;;;;;4970212;28;20192;-77
2024/03/22 05:29:41;;;;;;;33.65;6.03;;;8.40;99.90;;;;;;4970123;28;20030;-77
2024/03/22 05:32:07;;;;;;;28.50;5.25;;;8.40;99.90;;;;;;4987609;28;20281;-76
2024/03/22 05:34:32;;;;;;;30.33;5.35;;;8.40;99.90;;;;;;4987020;28;20039;-76
2024/03/22 05:36:58;;;;;;;29.05;5.43;;;8.40;99.90;;;;;;4954267;28;20019;-77
2024/03/22 05:39:24;;;;;;;34.97;5.18;;;8.30;99.90;;;;;;4970481;28;20093;-77
2024/03/22 05:41:50;;;;;;;28.60;4.32;;;8.40;99.90;;;;;;4954974;28;20038;-76
2024/03/22 05:44:15;;;;;;;26.40;5.57;;;8.30;99.90;;;;;;4986917;28;20031;-77
2024/03/22 05:46:41;;;;;;;30.60;5.43;;;8.30;99.90;;;;;;4987153;28;20019;-77
2024/03/22 05:49:07;;;;;;;32.05;5.55;;;8.30;99.90;;;;;;4954058;28;20039;-75
2024/03/22 05:51:33;;;;;;;31.05;5.38;;;8.20;99.90;;;;;;4970733;28;20026;-75
2024/03/22 05:53:59;;;;;;;29.60;6.30;;;8.20;99.90;;;;;;4939585;28;20023;-75
2024/03/22 05:56:24;;;;;;;27.52;5.03;;;8.20;99.90;;;;;;4989296;28;20105;-75
2024/03/22 05:58:50;;;;;;;36.85;6.80;;;8.10;99.90;;;;;;4989488;28;20330;-75
2024/03/22 06:01:15;;;;;;;42.10;8.43;;;8.10;99.90;;;;;;4957144;28;20311;-75
2024/03/22 06:03:41;;;;;;;34.78;8.77;;;8.10;99.90;;;;;;4973392;28;20063;-75
2024/03/22 06:06:07;;;;;;;48.17;14.50;;;8.00;99.90;;;;;;4972436;28;20039;-75
2024/03/22 06:08:34;;;;;;;41.80;10.68;;;8.00;99.90;;;;;;4955629;28;20046;-75
2024/03/22 06:11:00;;;;;;;36.30;9.98;;;8.00;99.90;;;;;;4971067;28;20042;-75
2024/03/22 06:13:26;;;;;;;37.72;7.95;;;7.90;99.90;;;;;;4970492;28;20023;-76
2024/03/22 06:15:51;;;;;;;30.98;5.47;;;8.00;99.90;;;;;;4954113;28;20029;-75
2024/03/22 06:18:17;;;;;;;22.63;4.85;;;7.90;99.90;;;;;;4969510;28;20296;-75
2024/03/22 06:20:43;;;;;;;31.58;5.40;;;7.90;99.90;;;;;;4969666;28;20030;-75
2024/03/22 06:23:09;;;;;;;37.33;7.00;;;7.80;99.90;;;;;;4973634;28;20054;-75
2024/03/22 06:25:34;;;;;;;37.67;6.45;;;7.80;99.90;;;;;;4957194;28;20101;-75
2024/03/22 06:28:00;;;;;;;29.17;5.53;;;7.70;99.90;;;;;;4956945;28;20030;-76
2024/03/22 06:30:27;;;;;;;28.00;5.22;;;7.80;99.90;;;;;;4989928;28;20169;-77
2024/03/22 06:32:53;;;;;;;26.30;5.53;;;7.70;99.90;;;;;;4972939;28;20027;-75
2024/03/22 06:35:18;;;;;;;24.77;4.90;;;7.70;99.90;;;;;;4973162;28;20033;-75
2024/03/22 06:37:44;;;;;;;30.48;5.50;;;7.70;99.90;;;;;;4973320;28;20053;-75
2024/03/22 06:40:10;;;;;;;26.73;4.97;;;7.70;99.90;;;;;;4972612;28;20070;-75
2024/03/22 06:42:36;;;;;;;28.60;4.85;;;7.60;99.90;;;;;;4972789;28;20188;-75
2024/03/22 06:45:02;;;;;;;29.65;4.72;;;7.60;99.90;;;;;;4973055;28;20034;-75
2024/03/22 06:47:28;;;;;;;24.77;4.22;;;7.60;99.90;;;;;;4957075;28;20157;-74
2024/03/22 06:49:54;;;;;;;32.17;5.07;;;7.60;99.90;;;;;;4972781;28;20035;-75
2024/03/22 06:52:20;;;;;;;19.33;4.30;;;7.70;99.90;;;;;;4989629;28;20033;-74
2024/03/22 06:54:46;;;;;;;24.33;4.53;;;7.80;99.90;;;;;;4972962;28;20077;-76
2024/03/22 06:57:11;;;;;;;24.15;4.20;;;8.00;99.90;;;;;;4989862;28;20163;-75
2024/03/22 06:59:37;;;;;;;14.63;3.55;;;8.30;99.90;;;;;;4972671;28;20026;-76
2024/03/22 07:02:03;;;;;;;22.30;3.80;;;8.50;99.90;;;;;;4956931;28;20030;-76
2024/03/22 07:04:29;;;;;;;24.25;4.70;;;8.80;99.90;;;;;;4989536;28;20018;-76
2024/03/22 07:06:54;;;;;;;19.25;3.88;;;9.00;99.90;;;;;;4972582;28;20030;-75
2024/03/22 07:09:20;;;;;;;20.95;3.13;;;9.00;99.90;;;;;;4972507;28;20043;-76
2024/03/22 07:11:46;;;;;;;17.40;3.53;;;9.20;99.90;;;;;;4972430;28;20027;-76
2024/03/22 07:14:12;;;;;;;16.95;2.70;;;9.30;99.90;;;;;;4972218;28;20038;-76
2024/03/22 07:16:37;;;;;;;17.92;2.85;;;9.50;99.90;;;;;;4956330;28;20030;-76
2024/03/22 07:19:03;;;;;;;19.77;3.90;;;9.80;99.90;;;;;;4956464;28;20023;-75
2024/03/22 07:21:29;;;;;;;27.13;3.78;;;9.80;99.90;;;;;;4989424;28;20042;-77
2024/03/22 07:23:55;;;;;;;24.77;4.13;;;10.00;99.90;;;;;;4972327;28;20280;-75
2024/03/22 07:26:21;;;;;;;25.98;3.08;;;10.20;99.90;;;;;;4988897;28;20029;-76
2024/03/22 07:28:46;;;;;;;14.18;3.25;;;10.60;99.90;;;;;;4940180;28;20027;-75
2024/03/22 07:31:12;;;;;;;16.35;3.00;;;11.00;99.90;;;;;;4988685;28;20045;-76
2024/03/22 07:33:39;;;;;;;16.98;3.60;;;11.30;99.90;;;;;;4955807;28;20038;-76
2024/03/22 07:36:05;;;;;;;18.13;3.22;;;11.50;99.90;;;;;;4972285;28;20034;-76
2024/03/22 07:38:30;;;;;;;22.05;3.40;;;11.50;99.90;;;;;;4971813;28;20045;-75
2024/03/22 07:40:56;;;;;;;16.50;3.25;;;11.50;99.90;;;;;;4955612;28;20062;-76
2024/03/22 07:43:22;;;;;;;15.60;3.60;;;11.50;99.90;;;;;;4971940;28;20035;-76
2024/03/22 07:45:47;;;;;;;19.23;3.15;;;11.30;99.90;;;;;;4955815;28;20030;-75
2024/03/22 07:48:13;;;;;;;19.70;3.28;;;11.20;99.90;;;;;;4988218;28;20367;-76
2024/03/22 07:50:39;;;;;;;16.13;2.95;;;10.80;99.90;;;;;;4971597;28;20058;-75
2024/03/22 07:53:05;;;;;;;12.27;2.92;;;10.60;99.90;;;;;;4988649;28;20090;-75
2024/03/22 07:55:30;;;;;;;20.17;3.38;;;10.40;99.90;;;;;;4971762;28;20029;-75
2024/03/22 07:57:57;;;;;;;13.15;2.70;;;10.30;99.90;;;;;;4955726;28;20027;-75
2024/03/22 08:00:25;;;;;;;20.02;3.45;;;10.20;99.90;;;;;;4971715;28;20030;-74
2024/03/22 08:02:53;;;;;;;11.40;3.38;;;10.10;99.90;;;;;;4971142;28;20082;-76
2024/03/22 08:05:19;;;;;;;18.25;3.08;;;10.10;99.90;;;;;;4988497;28;20297;-76
2024/03/22 08:07:45;;;;;;;16.90;2.80;;;10.40;99.90;;;;;;4971774;28;20035;-75
2024/03/22 08:10:10;;;;;;;21.00;3.25;;;10.60;99.90;;;;;;4971368;28;20034;-75
2024/03/22 08:12:36;;;;;;;17.88;3.78;;;11.20;99.90;;;;;;4955336;28;20023;-76
2024/03/22 08:15:02;;;;;;;19.50;3.10;;;11.40;99.90;;;;;;4971131;28;20027;-75
2024/03/22 08:17:28;;;;;;;18.15;3.00;;;11.50;99.90;;;;;;4971395;28;20022;-75
2024/03/22 08:19:54;;;;;;;13.30;2.67;;;11.50;99.90;;;;;;4971228;28;20095;-75
2024/03/22 08:22:19;;;;;;;16.98;3.33;;;11.10;99.90;;;;;;4971367;28;20034;-75
2024/03/22 08:24:45;;;;;;;15.38;2.65;;;11.00;99.90;;;;;;4971844;28;20237;-75
2024/03/22 08:27:11;;;;;;;14.15;3.50;;;10.80;99.90;;;;;;4955791;28;20237;-74
2024/03/22 08:29:37;;;;;;;20.95;3.83;;;10.60;99.90;;;;;;4954950;28;20069;-75
2024/03/22 08:32:04;;;;;;;15.80;3.20;;;10.50;99.90;;;;;;4956976;28;20058;-75
2024/03/22 08:34:32;;;;;;;17.25;2.60;;;11.40;99.90;;;;;;4972035;28;20019;-76
2024/03/22 08:36:58;;;;;;;15.88;2.70;;;12.30;99.90;;;;;;4972583;28;20027;-75
2024/03/22 08:39:24;;;;;;;16.20;3.78;;;12.60;99.90;;;;;;4988767;28;20019;-76
2024/03/22 08:41:51;;;;;;;20.17;2.90;;;13.50;99.90;;;;;;4971481;28;20275;-76
2024/03/22 08:44:16;;;;;;;15.95;3.08;;;13.60;99.90;;;;;;4973079;28;20288;-76
2024/03/22 08:46:42;;;;;;;16.92;3.58;;;14.10;99.90;;;;;;4958641;28;20038;-75
2024/03/22 08:49:08;;;;;;;16.63;3.30;;;13.80;99.90;;;;;;4974564;28;20027;-76
2024/03/22 08:51:34;;;;;;;17.67;3.50;;;13.60;99.90;;;;;;4974136;28;20094;-77
2024/03/22 08:54:00;;;;;;;12.70;2.97;;;14.00;99.90;;;;;;4956579;28;20276;-75
2024/03/22 08:56:26;;;;;;;13.50;3.58;;;14.30;99.90;;;;;;4988004;28;20027;-76
2024/03/22 08:58:52;;;;;;;12.45;2.42;;;14.70;99.90;;;;;;4988553;28;20030;-74
2024/03/22 09:01:18;;;;;;;16.70;3.15;;;15.20;99.90;;;;;;4957385;28;20042;-75
2024/03/22 09:03:46;;;;;;;11.60;2.67;;;15.90;99.90;;;;;;4975897;28;20054;-75
2024/03/22 09:06:12;;;;;;;12.68;2.97;;;14.90;99.90;;;;;;4990628;28;20030;-76
2024/03/22 09:08:38;;;;;;;12.35;2.13;;;14.90;99.90;;;;;;4954215;28;20023;-75
2024/03/22 09:11:03;;;;;;;13.15;2.97;;;14.30;99.90;;;;;;4969892;28;20034;-75
2024/03/22 09:13:29;;;;;;;17.08;4.43;;;15.10;99.90;;;;;;4970067;28;20027;-75
2024/03/22 09:15:58;;;;;;;10.80;2.25;;;15.70;99.90;;;;;;4954079;28;20164;-75
2024/03/22 09:18:27;;;;;;;20.93;3.30;;;16.40;99.90;;;;;;4954990;28;20335;-78
2024/03/22 09:20:53;;;;;;;24.05;9.15;;;16.70;99.90;;;;;;4970428;28;20030;-75
2024/03/22 09:23:19;;;;;;;17.42;5.65;;;16.20;99.90;;;;;;4954090;28;20019;-76
2024/03/22 09:25:48;;;;;;;13.70;4.07;;;16.70;99.90;;;;;;4954199;28;20074;-77
2024/03/22 09:28:14;;;;;;;22.08;8.95;;;17.00;99.90;;;;;;4970346;28;20276;-76
2024/03/22 09:30:40;;;;;;;14.48;4.55;;;17.20;99.90;;;;;;4937810;28;20295;-76
2024/03/22 09:33:09;;;;;;;12.50;2.40;;;17.70;99.90;;;;;;4969372;28;20046;-74
2024/03/22 09:35:35;;;;;;;16.58;2.80;;;17.70;99.90;;;;;;4954302;28;20050;-75
2024/03/22 09:38:01;;;;;;;12.07;2.40;;;18.10;99.90;;;;;;4953671;28;20089;-74
2024/03/22 09:40:26;;;;;;;7.55;2.47;;;18.10;99.90;;;;;;4969252;28;20195;-78
2024/03/22 09:42:53;;;;;;;12.05;3.05;;;18.40;99.90;;;;;;4937569;28;20288;-75
2024/03/22 09:45:20;;;;;;;17.48;6.75;;;18.70;99.90;;;;;;4986543;28;20050;-76
2024/03/22 09:47:46;;;;;;;13.05;2.88;;;19.00;99.90;;;;;;4938029;28;20030;-76
2024/03/22 09:50:11;;;;;;;15.07;2.75;;;18.80;99.90;;;;;;4969810;28;20035;-76
2024/03/22 09:52:38;;;;;;;15.05;3.53;;;19.00;99.90;;;;;;4986273;28;20288;-78
2024/03/22 09:55:05;;;;;;;13.10;2.88;;;19.00;99.90;;;;;;4969773;28;20019;-77
2024/03/22 09:57:31;;;;;;;13.35;2.45;;;19.70;99.90;;;;;;4953561;28;20085;-77
2024/03/22 09:59:57;;;;;;;14.07;2.80;;;19.50;99.90;;;;;;4969509;28;20280;-76
2024/03/22 10:02:22;;;;;;;11.05;2.30;;;19.10;99.90;;;;;;4969330;28;20034;-77
2024/03/22 10:04:48;;;;;;;11.48;2.80;;;17.70;99.90;;;;;;4969097;28;20038;-77
2024/03/22 10:07:13;;;;;;;13.65;3.25;;;17.00;99.90;;;;;;4953411;28;20082;-77
2024/03/22 10:09:40;;;;;;;15.75;2.60;;;16.60;99.90;;;;;;4969267;28;20098;-77
2024/03/22 10:12:06;;;;;;;15.00;3.78;;;15.70;99.90;;;;;;4969054;28;20026;-77
2024/03/22 10:14:33;;;;;;;11.93;2.38;;;16.80;99.90;;;;;;4969218;28;20015;-77
2024/03/22 10:16:59;;;;;;;15.52;2.78;;;17.90;99.90;;;;;;4985865;28;20019;-77
2024/03/22 10:19:24;;;;;;;14.88;2.92;;;18.80;99.90;;;;;;4953193;28;20035;-77
2024/03/22 10:22:03;;;;;;;18.00;3.00;;;19.00;99.90;;;;;;4985816;28;20027;-76
2024/03/22 10:24:29;;;;;;;13.27;2.42;;;18.60;99.90;;;;;;4969392;28;20066;-78
2024/03/22 10:26:55;;;;;;;15.60;3.03;;;19.10;99.90;;;;;;4969296;28;20027;-77
2024/03/22 10:29:22;;;;;;;12.50;2.65;;;17.40;99.90;;;;;;4953231;28;20176;-77
2024/03/22 10:31:48;;;;;;;18.98;3.45;;;17.40;99.90;;;;;;4969128;28;20054;-76
2024/03/22 10:34:13;;;;;;;15.35;3.30;;;18.50;99.90;;;;;;4952996;28;20272;-76
2024/03/22 10:36:39;;;;;;;14.25;3.28;;;19.40;99.90;;;;;;4953133;28;20034;-76
2024/03/22 10:39:05;;;;;;;14.30;2.35;;;20.00;99.90;;;;;;4969062;28;20023;-76
2024/03/22 10:41:31;;;;;;;14.40;2.83;;;20.00;99.90;;;;;;4968830;28;20244;-77
2024/03/22 10:43:58;;;;;;;14.60;3.22;;;20.30;99.90;;;;;;4969074;28;20045;-76
2024/03/22 10:46:25;;;;;;;12.25;4.00;;;19.10;99.90;;;;;;4968601;28;20053;-77
2024/03/22 10:48:51;;;;;;;10.60;3.00;;;19.60;99.90;;;;;;4937096;28;20042;-76
2024/03/22 10:51:17;;;;;;;13.95;2.83;;;18.70;99.90;;;;;;4985889;28;20031;-77
2024/03/22 10:53:42;;;;;;;14.70;2.67;;;18.90;99.90;;;;;;4969015;28;20041;-76
2024/03/22 10:56:09;;;;;;;16.17;2.92;;;18.70;99.90;;;;;;4985886;28;20023;-77
2024/03/22 10:58:35;;;;;;;15.38;2.80;;;18.40;99.90;;;;;;4953181;28;20019;-76
2024/03/22 11:01:01;;;;;;;15.50;2.90;;;17.30;99.90;;;;;;4952866;28;20049;-76
2024/03/22 11:03:28;;;;;;;12.18;2.40;;;16.30;99.90;;;;;;4985728;28;20019;-76
2024/03/22 11:05:56;;;;;;;9.15;2.60;;;15.90;99.90;;;;;;4969053;28;20089;-76
2024/03/22 11:08:29;;;;;;;11.38;2.40;;;15.30;99.90;;;;;;4954926;28;20031;-76
2024/03/22 11:10:54;;;;;;;12.38;2.42;;;15.10;99.90;;;;;;4956052;28;20039;-76
2024/03/22 11:13:20;;;;;;;10.32;2.80;;;16.30;99.90;;;;;;4956224;28;20039;-76
2024/03/22 11:15:52;;;;;;;13.55;3.28;;;17.90;99.90;;;;;;4971934;28;20042;-76
2024/03/22 11:18:17;;;;;;;12.05;3.10;;;16.90;99.90;;;;;;4971860;28;20023;-76
2024/03/22 11:20:44;;;;;;;17.90;2.90;;;17.30;99.90;;;;;;4989072;28;20094;-77
2024/03/22 11:23:10;;;;;;;11.40;2.70;;;17.60;99.90;;;;;;4971780;28;20057;-76
2024/03/22 11:25:36;;;;;;;12.43;2.42;;;18.30;99.90;;;;;;4988939;28;20245;-76
2024/03/22 11:28:02;;;;;;;43.22;16.73;;;18.10;99.90;;;;;;4989031;28;20038;-77
2024/03/22 11:30:31;;;;;;;17.77;4.20;;;18.00;99.90;;;;;;4971468;28;20034;-77
2024/03/22 11:32:57;;;;;;;;;;;18.70;99.90;;;;;;4988926;28;20034;-76
2024/03/22 11:35:23;;;;;;;8.90;2.28;;;20.20;99.90;;;;;;4971344;28;19910;-76
2024/03/22 11:37:50;;;;;;;12.38;2.97;;;19.40;99.90;;;;;;4971508;28;20023;-76
2024/03/22 11:40:15;;;;;;;12.52;3.38;;;20.10;99.90;;;;;;4971115;28;20054;-76
2024/03/22 11:42:42;;;;;;;12.50;3.22;;;19.90;99.90;;;;;;4971364;28;20089;-77
2024/03/22 11:45:09;;;;;;;11.82;4.95;;;20.40;99.90;;;;;;4955483;28;20109;-77
2024/03/22 11:47:35;;;;;;;13.55;2.30;;;19.90;99.90;;;;;;4955060;28;20030;-75
2024/03/22 11:50:01;;;;;;;11.52;2.67;;;20.70;99.90;;;;;;4988180;28;20096;-76
2024/03/22 11:52:27;;;;;;;12.95;3.47;;;20.70;99.90;;;;;;4988547;28;20272;-78
2024/03/22 11:54:52;;;;;;;9.07;2.53;;;20.10;99.90;;;;;;4971409;28;20019;-76
2024/03/22 11:57:20;;;;;;;9.00;2.38;;;19.80;99.90;;;;;;4971353;28;20038;-77
2024/03/22 11:59:45;;;;;;;13.02;4.20;;;20.00;99.90;;;;;;4955595;28;20232;-76
2024/03/22 12:02:11;;;;;;;16.40;4.22;;;21.00;99.90;;;;;;4988534;28;20023;-76
2024/03/22 12:04:45;;;;;;;21.90;9.80;;;22.10;99.90;;;;;;4939111;28;20102;-77
2024/03/22 12:07:11;;;;;;;14.98;9.70;;;22.30;99.90;;;;;;4940017;28;20049;-76
2024/03/22 12:09:37;;;;;;;12.13;3.67;;;21.40;99.90;;;;;;4988130;28;20034;-77
2024/03/22 12:12:04;;;;;;;11.57;3.25;;;21.40;99.90;;;;;;4988152;28;20082;-76
2024/03/22 12:14:30;;;;;;;10.52;2.72;;;20.50;99.90;;;;;;4987928;28;20268;-77
2024/03/22 12:16:55;;;;;;;13.85;4.95;;;21.60;99.90;;;;;;4987687;28;20067;-76
2024/03/22 12:19:21;;;;;;;14.88;3.25;;;21.80;99.90;;;;;;4986792;28;20029;-77
2024/03/22 12:21:47;;;;;;;13.07;4.07;;;22.50;99.90;;;;;;4987151;28;20094;-77
2024/03/22 12:24:13;;;;;;;14.52;5.22;;;22.50;99.90;;;;;;4969061;28;20053;-77
2024/03/22 12:26:38;;;;;;;61.03;33.80;;;22.50;99.90;;;;;;4987467;28;20019;-77
2024/03/22 12:29:04;;;;;;;13.90;3.05;;;21.80;99.90;;;;;;4987571;28;20081;-77
2024/03/22 12:31:31;;;;;;;25.88;15.15;;;22.50;99.90;;;;;;4987738;28;20049;-77
2024/03/22 12:33:56;;;;;;;12.43;3.25;;;22.40;99.90;;;;;;4954653;28;20068;-77
2024/03/22 12:36:22;;;;;;;16.05;7.75;;;22.30;99.90;;;;;;4970537;28;20290;-77
2024/03/22 12:38:48;;;;;;;12.13;3.13;;;22.40;99.90;;;;;;4954482;28;20034;-76
2024/03/22 12:41:13;;;;;;;10.52;3.50;;;22.20;99.90;;;;;;4970328;28;20050;-77
2024/03/22 12:43:41;;;;;;;7.78;2.20;;;21.90;99.90;;;;;;4954610;28;20038;-77
2024/03/22 12:46:07;;;;;;;13.25;3.55;;;21.90;99.90;;;;;;4970441;28;20035;-77